createdAt,value
2023-01-03T00:03:04.895Z,213.45
2023-01-03T00:13:06.630Z,178.32
2023-01-03T00:23:08.226Z,150.52
2023-01-03T00:33:09.860Z,142.43
2023-01-03T00:43:29.774Z,142.63
2023-01-03T00:53:31.490Z,135.07
2023-01-03T01:03:35.784Z,112.78
2023-01-03T01:13:38.496Z,107.70
2023-01-03T01:23:41.556Z,113.43
2023-01-03T01:33:43.581Z,118.00
2023-01-03T01:44:17.084Z,120.10
2023-01-03T01:54:20.470Z,134.53
2023-01-03T02:04:25.691Z,114.93
2023-01-03T02:15:00.089Z,99.78
2023-01-03T02:25:20.111Z,67.65
2023-01-03T02:35:37.475Z,80.03
2023-01-03T02:45:44.035Z,73.68
2023-01-03T02:55:50.411Z,79.60
2023-01-03T03:06:24.101Z,68.15
2023-01-03T03:16:48.247Z,59.13
2023-01-03T03:37:20.005Z,52.55
2023-01-03T03:47:47.416Z,51.08
2023-01-03T03:58:28.152Z,48.90
2023-01-03T04:08:29.924Z,47.67
2023-01-03T04:18:31.761Z,48.95
2023-01-03T04:28:33.408Z,43.53
2023-01-03T04:38:35.089Z,47.47
2023-01-03T04:48:36.794Z,49.17
2023-01-03T04:58:38.811Z,55.80
2023-01-03T05:08:41.211Z,49.90
2023-01-03T05:18:42.908Z,61.50
2023-01-03T05:28:49.462Z,169.05
2023-01-03T05:38:51.237Z,205.57
2023-01-03T05:48:52.918Z,116.53
2023-01-03T05:58:54.800Z,219.48
2023-01-03T06:08:56.621Z,165.18
2023-01-03T06:19:01.540Z,168.18
2023-01-03T06:29:04.460Z,72.72
2023-01-03T06:39:06.514Z,58.83
2023-01-03T06:49:34.903Z,51.55
2023-01-03T06:59:37.243Z,62.40
2023-01-03T07:09:39.248Z,63.25
2023-01-03T07:19:41.019Z,58.42
2023-01-03T07:29:42.745Z,47.38
2023-01-03T07:39:48.441Z,44.67
2023-01-03T07:49:50.083Z,43.35
2023-01-03T07:59:53.052Z,43.97
2023-01-03T08:10:13.176Z,39.17
2023-01-03T08:20:15.534Z,26.48
2023-01-03T08:30:18.177Z,26.67
2023-01-03T08:40:20.384Z,23.52
2023-01-03T08:50:23.419Z,28.48
2023-01-03T09:00:25.409Z,26.30
2023-01-03T09:10:27.823Z,26.80
2023-01-03T09:20:37.812Z,28.70
2023-01-03T09:30:40.097Z,29.55
2023-01-03T09:40:51.859Z,24.60
2023-01-03T09:51:18.318Z,26.17
2023-01-03T10:02:01.726Z,22.83
2023-01-03T10:12:04.882Z,21.92
2023-01-03T10:22:12.671Z,24.52
2023-01-03T10:32:49.657Z,20.60
2023-01-03T10:42:55.641Z,21.98
2023-01-03T10:53:06.106Z,21.10
2023-01-03T11:03:09.872Z,20.48
2023-01-03T11:13:31.819Z,19.27
2023-01-03T11:24:20.421Z,20.17
2023-01-03T11:45:48.383Z,25.00
2023-01-03T11:56:07.239Z,21.00
2023-01-03T12:06:28.348Z,21.40
2023-01-03T12:16:49.701Z,18.42
2023-01-03T12:46:48.353Z,22.65
2023-01-03T12:57:24.177Z,21.10
2023-01-03T13:07:32.199Z,26.85
2023-01-03T13:17:45.790Z,23.30
2023-01-03T13:37:57.880Z,18.83
2023-01-03T13:48:16.134Z,23.30
2023-01-03T13:58:43.031Z,24.13
2023-01-03T14:09:14.211Z,25.77
2023-01-03T14:19:34.491Z,21.00
2023-01-03T14:29:38.827Z,22.92
2023-01-03T14:39:40.901Z,22.92
2023-01-03T14:49:50.045Z,22.30
2023-01-03T14:59:53.841Z,24.58
2023-01-03T15:10:16.078Z,25.48
2023-01-03T15:20:28.262Z,22.25
2023-01-03T15:30:30.360Z,30.00
2023-01-03T15:40:32.460Z,27.67
2023-01-03T15:50:43.335Z,30.33
2023-01-03T16:00:52.572Z,34.50
2023-01-03T16:10:54.747Z,31.20
2023-01-03T16:20:56.918Z,30.65
2023-01-03T16:31:13.433Z,30.45
2023-01-03T16:41:16.091Z,33.33
2023-01-03T16:51:25.385Z,30.30
2023-01-03T17:01:28.201Z,34.88
2023-01-03T17:11:31.463Z,35.07
2023-01-03T17:21:35.474Z,32.25
2023-01-03T17:31:37.421Z,31.30
2023-01-03T17:42:06.437Z,30.98
2023-01-03T17:52:23.485Z,31.90
2023-01-03T18:02:26.055Z,31.77
2023-01-03T18:12:29.254Z,32.07
2023-01-03T18:22:31.107Z,29.08
2023-01-03T18:32:35.824Z,32.83
2023-01-03T18:42:58.159Z,34.03
2023-01-03T18:53:04.370Z,35.55
2023-01-03T19:03:23.811Z,40.75
2023-01-03T19:13:50.142Z,34.47
2023-01-03T19:24:18.518Z,36.88
2023-01-03T19:34:26.448Z,31.85
2023-01-03T19:44:35.931Z,36.28
2023-01-03T19:54:40.072Z,33.97
2023-01-03T20:04:43.366Z,31.13
2023-01-03T20:25:32.968Z,30.05
2023-01-03T20:45:59.636Z,35.53
2023-01-03T20:56:10.597Z,30.35
2023-01-03T21:06:21.256Z,26.75
2023-01-03T21:16:42.968Z,26.98
2023-01-03T21:26:49.925Z,25.02
2023-01-03T21:36:54.317Z,27.13
2023-01-03T21:46:57.557Z,23.98
2023-01-03T21:56:59.485Z,21.63
2023-01-03T22:07:02.510Z,22.23
2023-01-03T22:17:04.367Z,22.20
2023-01-03T22:27:06.154Z,22.20
2023-01-03T22:37:09.947Z,17.25
2023-01-03T22:47:11.926Z,12.85
2023-01-03T22:57:14.548Z,13.38
2023-01-03T23:07:16.405Z,11.93
2023-01-03T23:17:36.712Z,13.55
2023-01-03T23:27:38.391Z,12.88
2023-01-03T23:37:40.659Z,14.38
2023-01-03T23:47:42.460Z,15.35
2023-01-03T23:57:46.361Z,15.32
